Time;durP1;ratioP1;P1;durP2;ratioP2;P2;SDS_P1;SDS_P2;PMS_P1;PMS_P2;Temp;Humidity;BMP_temperature;BMP_pressure;BME280_temperature;BME280_humidity;BME280_pressure;Samples;Min_cycle;Max_cycle;Signal;HPM_P1;HPM_P2
2023/07/14 00:00:09;;;;;;;6.45;3.85;;;;;;;14.65;100.00;100910.78;7708994;23;20447;-96
2023/07/14 00:03:21;;;;;;;5.32;3.60;;;;;;;14.59;100.00;100916.56;7712186;23;20095;-96
2023/07/14 00:06:24;;;;;;;5.90;3.60;;;;;;;14.58;100.00;100920.09;7720883;23;20062;-96
2023/07/14 00:09:29;;;;;;;4.50;3.42;;;;;;;14.51;100.00;100922.44;7723080;22;20027;-96
2023/07/14 00:12:32;;;;;;;4.72;3.53;;;;;;;14.48;100.00;100916.66;7743008;22;20035;-96
2023/07/14 00:15:37;;;;;;;4.18;3.58;;;;;;;14.42;100.00;100924.06;7714113;23;20040;-96
2023/07/14 00:18:39;;;;;;;6.68;3.95;;;;;;;14.38;100.00;100920.09;7714235;23;20094;-96
2023/07/14 00:21:42;;;;;;;6.97;4.28;;;;;;;14.43;100.00;100915.31;7713935;23;20051;-96
2023/07/14 00:24:44;;;;;;;4.15;3.50;;;;;;;14.31;100.00;100919.00;7714886;23;20020;-96
2023/07/14 00:27:46;;;;;;;4.32;3.53;;;;;;;14.43;100.00;100909.25;7741032;23;20451;-96
2023/07/14 00:30:48;;;;;;;5.75;4.22;;;;;;;14.34;100.00;100910.91;7714953;23;20457;-96
2023/07/14 00:33:53;;;;;;;6.43;3.80;;;;;;;14.41;100.00;100914.59;7741614;23;20066;-96
2023/07/14 00:36:56;;;;;;;3.95;3.40;;;;;;;14.29;100.00;100912.28;7714404;23;20024;-96
2023/07/14 00:39:58;;;;;;;5.90;3.92;;;;;;;14.53;100.00;100914.47;7714431;23;20346;-96
2023/07/14 00:43:01;;;;;;;4.25;3.70;;;;;;;14.47;100.00;100913.22;7715389;23;20031;-96
2023/07/14 00:46:04;;;;;;;5.15;4.28;;;;;;;14.28;100.00;100910.59;7740975;23;20074;-96
2023/07/14 00:49:15;;;;;;;7.07;3.88;;;;;;;14.27;100.00;100915.00;7742968;23;20024;-96
2023/07/14 00:52:25;;;;;;;6.28;4.40;;;;;;;14.32;100.00;100912.81;7689160;23;20039;-96
2023/07/14 00:55:45;;;;;;;6.25;3.60;;;;;;;14.44;100.00;100908.31;7715245;23;20367;-96
2023/07/14 00:58:49;;;;;;;8.15;4.30;;;;;;;14.25;100.00;100910.88;7688850;23;20026;-96
2023/07/14 01:02:10;;;;;;;6.18;4.20;;;;;;;14.27;100.00;100915.00;7713617;23;20035;-96
2023/07/14 01:05:12;;;;;;;5.60;4.32;;;;;;;14.31;100.00;100908.56;7713847;23;20043;-96
2023/07/14 01:08:15;;;;;;;5.90;4.20;;;;;;;14.18;100.00;100903.59;7713806;23;20091;-96
2023/07/14 01:11:21;;;;;;;5.10;4.60;;;;;;;14.21;100.00;100908.56;7688716;23;20027;-96
2023/07/14 01:14:32;;;;;;;7.20;4.25;;;;;;;14.26;100.00;100897.75;7690064;23;20027;-96
2023/07/14 01:17:36;;;;;;;5.40;4.15;;;;;;;14.15;100.00;100892.66;7714578;22;20020;-96
2023/07/14 01:20:40;;;;;;;6.25;4.63;;;;;;;14.27;100.00;100899.38;7740990;23;20024;-96
2023/07/14 01:24:07;;;;;;;6.20;4.20;;;;;;;14.25;100.00;100897.88;7739772;23;20090;-96
2023/07/14 01:27:09;;;;;;;8.35;4.20;;;;;;;14.17;100.00;100899.38;7712840;23;20024;-96
2023/07/14 01:30:13;;;;;;;6.28;4.30;;;;;;;14.39;100.00;100906.09;7711326;23;20112;-96
2023/07/14 01:33:18;;;;;;;4.88;4.28;;;;;;;14.42;100.00;100895.41;7712885;23;20128;-96
2023/07/14 01:36:23;;;;;;;9.48;4.45;;;;;;;14.17;100.00;100898.53;7740296;23;20020;-96
2023/07/14 01:39:26;;;;;;;5.43;4.03;;;;;;;14.17;100.00;100894.16;7688267;23;20028;-96
2023/07/14 01:42:29;;;;;;;6.28;4.47;;;;;;;14.22;100.00;100893.75;7739785;23;20101;-96
2023/07/14 01:45:44;;;;;;;7.40;5.28;;;;;;;14.43;100.00;100898.81;7739825;23;20024;-96
2023/07/14 01:49:08;;;;;;;5.57;4.25;;;;;;;14.39;100.00;100900.06;7712299;23;20024;-96
2023/07/14 01:52:15;;;;;;;5.32;4.53;;;;;;;14.13;100.00;100894.56;7687636;23;20565;-96
2023/07/14 01:55:20;;;;;;;8.45;4.85;;;;;;;14.08;100.00;100897.56;7713444;23;20240;-96
2023/07/14 01:58:32;;;;;;;7.82;4.63;;;;;;;14.09;100.00;100895.81;7712969;23;20024;-96
2023/07/14 02:01:38;;;;;;;6.80;5.15;;;;;;;14.06;100.00;100898.66;7687129;23;20051;-96
2023/07/14 02:04:41;;;;;;;6.93;4.63;;;;;;;14.03;100.00;100889.34;7688193;23;20517;-96
2023/07/14 02:07:43;;;;;;;9.10;5.13;;;;;;;13.95;100.00;100903.03;7687629;23;20024;-96
2023/07/14 02:10:46;;;;;;;7.10;5.10;;;;;;;13.96;100.00;100899.47;7712107;23;20027;-96
2023/07/14 02:13:53;;;;;;;8.00;5.22;;;;;;;14.09;100.00;100908.81;7711667;23;20489;-96
2023/07/14 02:17:04;;;;;;;6.88;4.85;;;;;;;14.00;100.00;100903.44;7738991;23;20446;-96
2023/07/14 02:20:16;;;;;;;5.60;5.00;;;;;;;13.89;100.00;100908.78;7711984;23;20024;-96
2023/07/14 02:23:21;;;;;;;7.38;5.18;;;;;;;13.86;100.00;100908.19;7712376;23;20016;-96
2023/07/14 02:26:30;;;;;;;6.53;5.03;;;;;;;13.84;100.00;100904.91;7739778;23;20020;-96
2023/07/14 02:29:32;;;;;;;7.07;4.88;;;;;;;14.10;100.00;100902.66;7712629;23;20080;-96
2023/07/14 02:32:40;;;;;;;7.00;4.57;;;;;;;13.91;100.00;100909.47;7711660;23;20027;-96
2023/07/14 02:35:59;;;;;;;6.75;5.20;;;;;;;14.21;100.00;100915.56;7739415;23;20020;-96
2023/07/14 02:39:01;;;;;;;5.47;4.32;;;;;;;14.34;100.00;100902.28;7739553;23;20016;-95
2023/07/14 02:42:05;;;;;;;6.22;5.05;;;;;;;14.42;100.00;100902.41;7711169;23;20358;-96
2023/07/14 02:45:07;;;;;;;8.63;4.68;;;;;;;14.44;100.00;100906.50;7710481;23;20031;-96
2023/07/14 02:48:14;;;;;;;6.10;5.22;;;;;;;14.44;100.00;100897.88;7739466;23;20031;-96
2023/07/14 02:51:17;;;;;;;5.82;4.60;;;;;;;14.43;100.00;100904.88;7712652;23;20442;-96
2023/07/14 02:54:19;;;;;;;7.40;5.38;;;;;;;14.43;100.00;100893.63;7712059;23;20166;-96
2023/07/14 02:57:21;;;;;;;5.97;5.20;;;;;;;14.42;100.00;100899.78;7738901;23;20020;-96
2023/07/14 03:00:23;;;;;;;9.20;5.57;;;;;;;14.38;100.00;100899.25;7711887;23;20028;-96
2023/07/14 03:03:26;;;;;;;6.55;5.30;;;;;;;14.38;100.00;100896.66;7734941;23;20024;-96
2023/07/14 03:06:28;;;;;;;8.43;5.35;;;;;;;14.35;100.00;100889.09;7735431;23;20040;-96
2023/07/14 03:09:31;;;;;;;8.73;5.53;;;;;;;14.38;100.00;100888.00;7710883;23;20027;-95
2023/07/14 03:12:33;;;;;;;6.28;5.13;;;;;;;14.37;100.00;100887.19;7712576;23;20619;-96
2023/07/14 03:15:35;;;;;;;7.80;5.53;;;;;;;14.36;100.00;100890.75;7711708;23;20481;-96
2023/07/14 03:18:37;;;;;;;7.85;5.55;;;;;;;14.36;100.00;100890.75;7739043;22;20020;-96
2023/07/14 03:21:39;;;;;;;9.38;5.70;;;;;;;14.34;100.00;100889.25;7711986;23;20082;-96
2023/07/14 03:24:41;;;;;;;6.03;4.95;;;;;;;14.24;100.00;100891.84;7711576;23;20082;-96
2023/07/14 03:27:45;;;;;;;6.10;4.90;;;;;;;14.21;100.00;100882.53;7738940;23;20760;-95
2023/07/14 03:30:48;;;;;;;7.80;5.45;;;;;;;14.20;100.00;100877.44;7738155;23;20721;-96
2023/07/14 03:33:52;;;;;;;7.40;5.60;;;;;;;14.22;100.00;100884.16;7711870;23;20028;-96
2023/07/14 03:36:54;;;;;;;8.10;5.45;;;;;;;14.23;100.00;100879.75;7686415;23;20358;-96
2023/07/14 03:39:56;;;;;;;8.38;4.82;;;;;;;14.27;100.00;100894.16;7738886;23;20020;-96
2023/07/14 03:42:58;;;;;;;7.35;5.40;;;;;;;14.28;100.00;100890.59;7737919;23;20023;-96
2023/07/14 03:46:00;;;;;;;8.07;5.30;;;;;;;14.29;100.00;100888.84;7711887;23;20785;-96
2023/07/14 03:49:03;;;;;;;8.30;5.25;;;;;;;14.31;100.00;100879.94;7738222;23;20031;-96
2023/07/14 03:52:05;;;;;;;7.22;5.10;;;;;;;14.29;100.00;100879.25;7713039;23;20026;-96
2023/07/14 03:55:09;;;;;;;8.30;5.28;;;;;;;14.27;100.00;100882.94;7713834;23;20020;-96
2023/07/14 03:58:11;;;;;;;7.85;4.95;;;;;;;14.27;100.00;100869.91;7688979;23;20027;-96
2023/07/14 04:01:14;;;;;;;8.48;5.20;;;;;;;14.26;100.00;100869.09;7714369;23;20385;-96
2023/07/14 04:04:16;;;;;;;6.30;5.00;;;;;;;14.23;100.00;100874.56;7689688;23;20038;-96
2023/07/14 04:07:18;;;;;;;9.02;5.13;;;;;;;14.16;100.00;100878.66;7713783;23;20099;-96
2023/07/14 04:10:20;;;;;;;7.05;4.85;;;;;;;14.21;100.00;100871.28;7740680;23;20023;-96
2023/07/14 04:13:22;;;;;;;6.93;5.10;;;;;;;14.28;100.00;100879.38;7714011;23;20290;-96
2023/07/14 04:16:24;;;;;;;6.85;5.13;;;;;;;14.27;100.00;100875.94;7740202;23;20016;-96
2023/07/14 04:19:26;;;;;;;8.88;5.25;;;;;;;14.28;100.00;100877.56;7714082;23;20514;-95
2023/07/14 04:22:28;;;;;;;7.70;5.00;;;;;;;14.28;100.00;100872.38;7739258;23;20694;-96
2023/07/14 04:25:33;;;;;;;8.88;4.95;;;;;;;14.27;100.00;100868.13;7739712;23;20139;-96
2023/07/14 04:28:36;;;;;;;11.60;4.55;;;;;;;14.31;100.00;100868.66;7713598;23;20347;-96
2023/07/14 04:31:38;;;;;;;6.38;4.60;;;;;;;14.34;100.00;100871.84;7740510;23;20043;-96
2023/07/14 04:34:40;;;;;;;5.65;5.03;;;;;;;14.36;100.00;100875.13;7739249;23;20454;-96
2023/07/14 04:37:42;;;;;;;6.55;5.15;;;;;;;14.38;100.00;100877.56;7741047;23;20044;-96
2023/07/14 04:40:45;;;;;;;7.18;4.78;;;;;;;14.46;100.00;100874.28;7740325;23;20027;-96
2023/07/14 04:43:47;;;;;;;6.10;4.90;;;;;;;14.51;100.00;100882.50;7740092;23;20104;-96
2023/07/14 04:46:50;;;;;;;7.30;5.05;;;;;;;14.56;100.00;100882.97;7739587;23;20027;-96
2023/07/14 04:49:52;;;;;;;9.77;5.10;;;;;;;14.63;100.00;100886.66;7740111;23;20399;-96
2023/07/14 04:52:56;;;;;;;10.32;5.00;;;;;;;14.72;100.00;100883.22;7740202;23;20450;-95
2023/07/14 04:55:58;;;;;;;14.80;5.30;;;;;;;14.78;100.00;100880.06;7738741;23;20445;-95
2023/07/14 04:59:00;;;;;;;8.63;5.28;;;;;;;14.86;100.00;100882.78;7713501;23;20027;-96
2023/07/14 05:02:05;;;;;;;10.00;5.03;;;;;;;14.92;100.00;100878.78;7739026;23;20520;-96
2023/07/14 05:05:11;;;;;;;10.10;5.22;;;;;;;14.97;100.00;100880.97;7713987;23;20117;-95
2023/07/14 05:08:13;;;;;;;10.90;5.35;;;;;;;15.09;100.00;100882.44;7714299;23;20020;-96
2023/07/14 05:11:15;;;;;;;8.82;4.72;;;;;;;15.29;100.00;100875.38;7740127;23;20036;-96
2023/07/14 05:14:18;;;;;;;7.85;6.00;;;;;;;15.51;100.00;100885.44;7739492;23;20016;-96
2023/07/14 05:17:20;;;;;;;9.77;5.63;;;;;;;15.78;100.00;100889.06;7712942;23;20016;-96
2023/07/14 05:20:24;;;;;;;8.40;4.88;;;;;;;16.10;100.00;100893.81;7740509;23;20052;-95
2023/07/14 05:23:27;;;;;;;10.23;5.05;;;;;;;16.42;100.00;100887.25;7713080;23;20020;-96
2023/07/14 05:26:29;;;;;;;7.47;4.85;;;;;;;16.72;100.00;100882.56;7712763;23;20023;-96
2023/07/14 05:29:31;;;;;;;9.65;5.25;;;;;;;16.91;100.00;100889.44;7713702;23;20402;-96
2023/07/14 05:32:33;;;;;;;9.23;4.90;;;;;;;17.12;100.00;100899.53;7713374;23;20020;-96
2023/07/14 05:35:36;;;;;;;5.50;4.45;;;;;;;17.29;100.00;100884.72;7713150;23;20026;-96
2023/07/14 05:38:38;;;;;;;9.75;5.05;;;;;;;17.38;100.00;100882.00;7739817;23;20120;-96
2023/07/14 05:41:40;;;;;;;7.82;4.70;;;;;;;17.54;100.00;100880.41;7738801;23;20032;-96
2023/07/14 05:44:43;;;;;;;6.78;4.63;;;;;;;17.71;100.00;100865.59;7711747;23;20111;-96
2023/07/14 05:47:46;;;;;;;6.63;4.40;;;;;;;17.85;100.00;100855.34;7739599;23;20090;-96
2023/07/14 05:50:48;;;;;;;8.85;4.45;;;;;;;18.01;100.00;100843.25;7740413;23;20351;-96
2023/07/14 05:53:50;;;;;;;10.48;4.80;;;;;;;17.72;100.00;100843.69;7712376;23;20034;-96
2023/07/14 05:56:53;;;;;;;5.43;4.45;;;;;;;18.07;100.00;100842.63;7740035;23;20020;-96
2023/07/14 05:59:56;;;;;;;5.65;4.45;;;;;;;18.14;100.00;100840.19;7741297;23;20031;-96
2023/07/14 06:02:58;;;;;;;8.57;4.40;;;;;;;18.00;100.00;100831.16;7745223;23;20023;-96
2023/07/14 06:06:05;;;;;;;6.97;4.82;;;;;;;17.93;100.00;100835.41;7691240;23;20260;-96
2023/07/14 06:09:09;;;;;;;6.80;3.70;;;;;;;17.96;100.00;100829.84;7726573;23;20023;-96
2023/07/14 06:12:12;;;;;;;6.18;4.10;;;;;;;17.95;100.00;100829.00;7733049;23;20110;-96
2023/07/14 06:15:15;;;;;;;4.85;4.05;;;;;;;17.98;100.00;100827.88;7736784;23;20012;-96
2023/07/14 06:18:18;;;;;;;8.52;4.30;;;;;;;18.06;100.00;100827.88;7735700;22;20035;-96
2023/07/14 06:21:25;;;;;;;5.88;4.20;;;;;;;18.16;100.00;100827.72;7735108;23;20024;-96
2023/07/14 06:24:29;;;;;;;5.60;3.83;;;;;;;18.23;100.00;100824.28;7714367;23;20016;-96
2023/07/14 06:27:34;;;;;;;4.68;4.20;;;;;;;18.68;100.00;100819.50;7717900;23;20038;-96
2023/07/14 06:30:40;;;;;;;10.00;4.40;;;;;;;18.75;100.00;100819.66;7722945;23;20028;-96
2023/07/14 06:33:46;;;;;;;5.82;4.07;;;;;;;18.76;100.00;100816.06;7728464;23;20020;-96
2023/07/14 06:36:57;;;;;;;6.43;3.97;;;;;;;18.75;100.00;100809.97;7758094;23;20008;-96
2023/07/14 06:40:08;;;;;;;6.72;3.78;;;;;;;18.65;100.00;100815.41;7759251;23;20004;-96
2023/07/14 06:43:18;;;;;;;7.80;3.90;;;;;;;18.55;100.00;100817.38;7751861;22;20016;-96
2023/07/14 06:46:25;;;;;;;5.63;4.13;;;;;;;18.45;100.00;100820.19;7735022;23;20047;-96
2023/07/14 06:49:33;;;;;;;5.82;3.88;;;;;;;18.40;100.00;100816.41;7736729;23;20016;-96
2023/07/14 06:52:38;;;;;;;6.78;4.45;;;;;;;18.25;100.00;100824.13;7738565;23;20065;-96
2023/07/14 06:55:48;;;;;;;6.15;4.22;;;;;;;17.92;100.00;100823.28;7740270;23;20515;-96
2023/07/14 06:58:51;;;;;;;5.90;3.80;;;;;;;18.16;100.00;100825.94;7740568;23;20040;-96
2023/07/14 07:02:01;;;;;;;5.78;3.78;;;;;;;17.70;100.00;100828.13;7739644;23;20023;-96
2023/07/14 07:05:04;;;;;;;;;;;;;;;17.88;100.00;100829.81;7740368;23;20024;-96
2023/07/14 07:08:15;;;;;;;8.35;3.88;;;;;;;17.97;100.00;100826.25;7740317;22;19923;-96
2023/07/14 07:11:18;;;;;;;8.00;3.95;;;;;;;18.07;100.00;100826.91;7736904;23;20019;-96
2023/07/14 07:14:25;;;;;;;7.88;4.15;;;;;;;18.19;100.00;100822.97;7738005;23;20024;-96
2023/07/14 07:17:33;;;;;;;5.97;4.03;;;;;;;18.28;100.00;100822.00;7739209;23;20514;-96
2023/07/14 07:20:37;;;;;;;6.22;4.03;;;;;;;18.40;100.00;100816.41;7712457;23;20046;-96
2023/07/14 07:23:46;;;;;;;8.65;4.03;;;;;;;18.39;100.00;100820.84;7740499;23;20016;-96
2023/07/14 07:26:54;;;;;;;6.53;4.35;;;;;;;17.84;100.00;100818.88;7741428;23;20227;-96
2023/07/14 07:30:01;;;;;;;7.93;4.13;;;;;;;17.85;100.00;100805.59;7742284;23;20115;-96
2023/07/14 07:33:12;;;;;;;6.80;4.00;;;;;;;17.91;100.00;100801.50;7717555;23;20504;-96
2023/07/14 07:36:19;;;;;;;5.15;3.65;;;;;;;18.45;100.00;100799.19;7742899;23;20822;-96
2023/07/14 07:39:26;;;;;;;6.40;3.78;;;;;;;18.75;100.00;100793.41;7742856;22;20012;-96
2023/07/14 07:42:29;;;;;;;6.00;3.72;;;;;;;18.89;100.00;100790.94;7740805;23;20030;-96
2023/07/14 07:45:35;;;;;;;8.48;4.53;;;;;;;19.01;100.00;100774.84;7742476;23;20013;-96
2023/07/14 07:48:38;;;;;;;6.05;3.92;;;;;;;19.08;100.00;100783.66;7741629;23;20354;-96
2023/07/14 07:51:51;;;;;;;6.50;3.58;;;;;;;19.15;100.00;100766.25;7740744;23;20142;-96
2023/07/14 07:55:16;;;;;;;7.82;3.58;;;;;;;19.26;100.00;100772.94;7741905;23;20457;-96
2023/07/14 07:58:24;;;;;;;3.30;2.80;;;;;;;19.44;100.00;100777.91;7741994;23;20020;-96
2023/07/14 08:01:31;;;;;;;4.43;2.75;;;;;;;19.53;100.00;100776.88;7739818;23;20028;-96
2023/07/14 08:04:42;;;;;;;4.68;2.58;;;;;;;18.97;100.00;100774.34;7742186;23;20024;-96
2023/07/14 08:07:52;;;;;;;3.80;2.50;;;;;;;18.97;100.00;100782.22;7742294;23;20020;-96
2023/07/14 08:10:59;;;;;;;3.17;2.40;;;;;;;19.06;100.00;100764.66;7738984;23;20031;-96
2023/07/14 08:14:11;;;;;;;4.65;2.60;;;;;;;19.15;100.00;100764.47;7739677;23;20438;-96
2023/07/14 08:17:14;;;;;;;;;;;;;;;19.25;100.00;100764.22;7741599;23;20097;-96
2023/07/14 08:20:19;;;;;;;6.90;2.75;;;;;;;19.40;100.00;100769.56;7714761;23;20357;-96
2023/07/14 08:23:23;;;;;;;3.80;2.80;;;;;;;19.52;100.00;100760.28;7740802;23;20110;-96
2023/07/14 08:26:37;;;;;;;3.47;2.70;;;;;;;19.68;100.00;100759.41;7741478;22;20640;-95
2023/07/14 08:29:42;;;;;;;4.78;2.50;;;;;;;19.87;100.00;100766.00;7740998;23;20017;-96
2023/07/14 08:33:01;;;;;;;3.85;2.42;;;;;;;20.08;100.00;100762.72;7740263;23;20012;-96
2023/07/14 08:36:04;;;;;;;4.05;2.20;;;;;;;20.19;100.00;100761.47;7742714;22;20445;-96
2023/07/14 08:39:08;;;;;;;3.92;2.58;;;;;;;20.78;100.00;100764.16;7739974;23;20027;-96
2023/07/14 08:42:32;;;;;;;4.93;2.75;;;;;;;20.76;100.00;100768.78;7742841;23;20095;-96
2023/07/14 08:45:57;;;;;;;5.50;3.03;;;;;;;20.81;100.00;100765.63;7742011;23;20024;-96
2023/07/14 08:49:14;;;;;;;6.03;2.70;;;;;;;20.32;100.00;100760.84;7740690;23;20023;-96
2023/07/14 08:52:23;;;;;;;4.65;2.67;;;;;;;20.20;100.00;100763.09;7740338;23;20362;-96
2023/07/14 08:55:39;;;;;;;3.85;2.70;;;;;;;20.16;100.00;100753.94;7742614;23;20109;-96
2023/07/14 08:58:43;;;;;;;6.32;3.15;;;;;;;20.30;100.00;100758.41;7714846;23;20020;-96
2023/07/14 09:01:56;;;;;;;4.00;2.70;;;;;;;20.57;100.00;100758.81;7740190;23;20354;-96
2023/07/14 09:05:03;;;;;;;5.65;2.42;;;;;;;20.76;100.00;100747.75;7742181;23;20134;-96
2023/07/14 09:08:14;;;;;;;3.03;2.45;;;;;;;20.95;100.00;100745.56;7740204;23;20016;-96
2023/07/14 09:11:35;;;;;;;5.60;2.38;;;;;;;21.06;100.00;100745.88;7765814;22;20023;-96
2023/07/14 09:14:57;;;;;;;4.72;2.70;;;;;;;21.11;100.00;100745.34;7742430;23;20091;-96
2023/07/14 09:18:18;;;;;;;3.65;2.75;;;;;;;21.16;100.00;100742.97;7740733;23;20024;-96
2023/07/14 09:21:50;;;;;;;3.15;2.35;;;;;;;21.17;100.00;100734.06;7741741;22;20027;-96
2023/07/14 09:25:15;;;;;;;5.00;2.45;;;;;;;21.33;100.00;100740.91;7741121;23;20024;-96
2023/07/14 09:28:25;;;;;;;3.63;2.45;;;;;;;21.40;100.00;100733.94;7741413;23;20461;-96
2023/07/14 09:31:45;;;;;;;5.45;2.50;;;;;;;21.52;100.00;100731.63;7742851;23;20012;-96
2023/07/14 09:35:07;;;;;;;5.65;2.70;;;;;;;21.64;100.00;100724.84;7743008;23;20039;-96
2023/07/14 09:38:25;;;;;;;4.00;2.40;;;;;;;21.75;100.00;100723.53;7744119;23;20392;-96
2023/07/14 09:41:33;;;;;;;3.00;2.10;;;;;;;21.92;100.00;100714.34;7740937;23;20127;-96
2023/07/14 09:44:41;;;;;;;4.03;2.20;;;;;;;22.19;100.00;100726.91;7743635;22;20012;-96
2023/07/14 09:48:14;;;;;;;5.15;2.25;;;;;;;22.44;100.00;100725.47;7742098;23;20022;-96
2023/07/14 09:51:25;;;;;;;3.65;2.33;;;;;;;22.62;100.00;100721.50;7740825;23;20178;-96
2023/07/14 09:54:33;;;;;;;;;;;;;;;22.69;100.00;100717.06;7743830;23;20047;-96
2023/07/14 09:57:44;;;;;;;3.30;2.20;;;;;;;22.80;100.00;100719.13;7743981;23;19919;-96
2023/07/14 10:01:13;;;;;;;3.58;2.20;;;;;;;22.86;100.00;100709.66;7741384;23;20484;-96
2023/07/14 10:04:17;;;;;;;2.22;1.73;;;;;;;22.90;100.00;100705.56;7742728;23;20020;-96
2023/07/14 10:07:32;;;;;;;3.97;2.10;;;;;;;22.88;100.00;100700.50;7742522;23;20478;-96
2023/07/14 10:10:42;;;;;;;3.20;2.17;;;;;;;23.03;100.00;100691.63;7718745;23;20039;-96
2023/07/14 10:13:57;;;;;;;3.53;2.00;;;;;;;23.17;100.00;100686.19;7743563;23;20024;-96
2023/07/14 10:17:05;;;;;;;3.60;2.17;;;;;;;23.07;100.00;100683.13;7742022;23;20038;-96
2023/07/14 10:20:17;;;;;;;4.95;2.33;;;;;;;23.08;100.00;100679.47;7745070;23;20026;-96
2023/07/14 10:23:26;;;;;;;6.13;2.30;;;;;;;23.18;100.00;100671.97;7744465;23;20156;-96
2023/07/14 10:26:36;;;;;;;3.92;2.17;;;;;;;23.18;100.00;100677.25;7742815;23;20019;-96
2023/07/14 10:30:10;;;;;;;3.10;2.35;;;;;;;23.45;100.00;100669.34;7741360;23;20020;-96
2023/07/14 10:33:36;;;;;;;2.95;2.00;;;;;;;24.00;100.00;100666.50;7717364;23;20163;-96
2023/07/14 10:36:48;;;;;;;5.50;2.55;;;;;;;23.89;100.00;100660.03;7744089;23;20028;-96
2023/07/14 10:40:12;;;;;;;5.78;2.25;;;;;;;23.94;100.00;100652.28;7743254;23;20444;-96
2023/07/14 10:43:37;;;;;;;5.05;2.40;;;;;;;24.49;100.00;100659.88;7743403;23;20020;-96
2023/07/14 10:46:52;;;;;;;4.45;2.53;;;;;;;24.96;100.00;100652.53;7743533;23;20008;-96
2023/07/14 10:50:31;;;;;;;4.47;2.00;;;;;;;25.07;100.00;100643.09;7744298;23;20016;-96
2023/07/14 10:54:24;;;;;;;2.47;1.92;;;;;;;24.90;100.00;100646.25;7741495;23;20012;-96
2023/07/14 10:57:47;;;;;;;4.38;2.25;;;;;;;24.99;100.00;100648.63;7682856;23;20034;-96
2023/07/14 11:00:59;;;;;;;4.40;2.03;;;;;;;24.95;100.00;100640.31;7739040;23;20038;-96
2023/07/14 11:04:30;;;;;;;2.67;2.10;;;;;;;24.69;100.00;100634.16;7741697;23;20469;-96
2023/07/14 11:07:36;;;;;;;3.47;2.53;;;;;;;25.07;100.00;100635.97;7715052;23;20503;-96
2023/07/14 11:11:22;;;;;;;3.20;2.40;;;;;;;25.47;100.00;100630.41;7746156;23;20024;-96
2023/07/14 11:14:48;;;;;;;2.40;1.95;;;;;;;25.66;100.00;100635.72;7648332;23;20343;-96
2023/07/14 11:18:35;;;;;;;3.22;1.98;;;;;;;25.35;100.00;100635.59;7752657;23;20094;-96
2023/07/14 11:21:55;;;;;;;3.38;1.83;;;;;;;25.22;100.00;100625.09;7749314;23;20020;-96
2023/07/14 11:25:31;;;;;;;3.63;2.17;;;;;;;24.88;100.00;100615.72;7748625;23;20021;-96
2023/07/14 11:28:49;;;;;;;3.72;2.50;;;;;;;24.78;100.00;100607.44;7750120;23;20108;-96
2023/07/14 11:31:57;;;;;;;2.83;1.90;;;;;;;24.97;100.00;100614.44;7748867;23;20031;-96
2023/07/14 11:35:54;;;;;;;3.30;2.28;;;;;;;25.61;100.00;100601.09;7751653;23;20027;-96
2023/07/14 11:39:20;;;;;;;4.00;2.55;;;;;;;26.00;100.00;100605.22;7752233;23;20016;-96
2023/07/14 11:42:38;;;;;;;5.82;1.95;;;;;;;26.43;100.00;100604.28;7746714;23;20133;-96
2023/07/14 11:46:01;;;;;;;3.03;2.30;;;;;;;26.66;100.00;100590.34;7741901;23;20457;-96
2023/07/14 11:49:07;;;;;;;3.72;2.08;;;;;;;26.51;100.00;100590.72;7740054;23;20031;-96
2023/07/14 11:52:11;;;;;;;3.00;2.42;;;;;;;26.14;100.00;100595.28;7741507;23;20016;-96
2023/07/14 11:55:24;;;;;;;4.00;2.40;;;;;;;26.12;100.00;100594.69;7742592;23;20012;-96
2023/07/14 11:58:42;;;;;;;6.13;2.40;;;;;;;26.69;100.00;100581.94;7743040;23;20016;-96
2023/07/14 12:02:13;;;;;;;3.30;2.20;;;;;;;27.00;100.00;100578.16;7740507;23;20016;-96
2023/07/14 12:05:26;;;;;;;3.78;2.50;;;;;;;26.96;100.00;100577.03;7744222;23;20070;-96
2023/07/14 12:09:13;;;;;;;3.40;2.28;;;;;;;26.83;100.00;100580.69;7743012;23;20016;-96
2023/07/14 12:12:24;;;;;;;3.63;2.33;;;;;;;26.74;100.00;100570.63;7741439;23;20016;-96
2023/07/14 12:16:25;;;;;;;4.07;2.50;;;;;;;27.13;100.00;100568.38;7719036;23;20024;-96
2023/07/14 12:19:55;;;;;;;3.78;2.60;;;;;;;28.02;100.00;100566.38;7748266;22;20016;-96
2023/07/14 12:23:14;;;;;;;3.78;2.53;;;;;;;28.52;99.98;100571.09;7753688;22;20031;-96
2023/07/14 12:26:57;;;;;;;3.90;2.60;;;;;;;28.18;100.00;100570.16;7752662;23;20020;-96
2023/07/14 12:30:26;;;;;;;2.85;2.47;;;;;;;28.34;100.00;100555.28;7749075;23;20592;-96
2023/07/14 12:33:32;;;;;;;3.42;2.17;;;;;;;28.84;100.00;100546.59;7752938;22;20024;-96
2023/07/14 12:36:42;;;;;;;4.50;2.42;;;;;;;29.05;100.00;100544.25;7748710;23;20019;-96
2023/07/14 12:39:51;;;;;;;3.83;2.45;;;;;;;29.39;100.00;100537.84;7746551;23;20028;-96
2023/07/14 12:43:05;;;;;;;4.28;2.70;;;;;;;29.59;97.78;100533.81;7747004;23;20024;-96
2023/07/14 12:46:25;;;;;;;3.55;2.38;;;;;;;29.51;100.00;100534.25;7750150;22;20044;-96
2023/07/14 12:49:40;;;;;;;3.63;2.47;;;;;;;29.39;100.00;100529.84;7749076;23;20524;-96
2023/07/14 12:52:49;;;;;;;4.13;2.42;;;;;;;29.13;100.00;100525.22;7749249;23;20043;-96
2023/07/14 12:55:57;;;;;;;3.42;2.58;;;;;;;29.10;100.00;100515.03;7750640;23;20104;-96
2023/07/14 12:59:14;;;;;;;3.30;2.38;;;;;;;29.03;94.82;100509.84;7748701;23;20016;-96
2023/07/14 13:02:24;;;;;;;3.17;2.30;;;;;;;28.86;100.00;100503.72;7748696;23;20021;-96
2023/07/14 13:05:41;;;;;;;3.60;2.40;;;;;;;28.56;100.00;100483.53;7747511;23;20020;-96
2023/07/14 13:08:56;;;;;;;3.42;2.42;;;;;;;28.48;100.00;100482.06;7746879;23;20066;-96
2023/07/14 13:12:04;;;;;;;2.95;2.40;;;;;;;28.53;100.00;100473.38;7745852;23;20039;-96
2023/07/14 13:15:16;;;;;;;4.65;2.90;;;;;;;28.59;100.00;100474.25;7743320;23;20118;-96
2023/07/14 13:18:26;;;;;;;4.07;2.65;;;;;;;28.85;100.00;100476.25;7742490;23;20044;-96
2023/07/14 13:21:42;;;;;;;2.85;2.42;;;;;;;28.90;93.49;100481.66;7743373;23;20022;-96
2023/07/14 13:25:06;;;;;;;2.50;2.30;;;;;;;29.01;99.01;100481.81;7742062;23;20151;-96
2023/07/14 13:28:37;;;;;;;3.35;2.60;;;;;;;29.65;100.00;100476.81;7741702;23;20451;-96
2023/07/14 13:31:42;;;;;;;3.35;2.63;;;;;;;30.58;91.18;100471.34;7746859;23;20020;-96
2023/07/14 13:35:00;;;;;;;4.53;3.33;;;;;;;30.74;77.69;100466.16;7746227;23;20470;-96
2023/07/14 13:38:13;;;;;;;2.97;2.63;;;;;;;30.38;83.91;100468.53;7750048;23;20027;-96
2023/07/14 13:41:30;;;;;;;3.58;2.17;;;;;;;30.58;98.41;100452.66;7749589;23;20020;-96
2023/07/14 13:45:00;;;;;;;5.25;2.92;;;;;;;31.11;89.66;100453.56;7749552;23;20385;-96
2023/07/14 13:48:23;;;;;;;3.67;2.53;;;;;;;30.58;87.78;100449.19;7750106;23;20020;-96
2023/07/14 13:51:29;;;;;;;5.60;2.55;;;;;;;29.72;95.81;100448.13;7748505;22;20442;-96
2023/07/14 13:54:40;;;;;;;3.80;2.60;;;;;;;29.56;100.00;100440.94;7747402;22;20081;-96
2023/07/14 13:57:50;;;;;;;5.43;2.53;;;;;;;29.86;100.00;100429.84;7746008;23;20024;-96
2023/07/14 14:00:53;;;;;;;4.60;2.83;;;;;;;29.96;91.34;100429.97;7748190;23;20040;-96
2023/07/14 14:03:59;;;;;;;6.57;3.08;;;;;;;29.76;95.85;100427.88;7747381;23;20106;-96
2023/07/14 14:07:11;;;;;;;3.72;2.67;;;;;;;29.83;90.68;100425.00;7748731;23;20020;-96
2023/07/14 14:10:26;;;;;;;3.60;2.58;;;;;;;30.40;92.69;100416.47;7749966;23;20012;-96
2023/07/14 14:13:46;;;;;;;4.25;2.85;;;;;;;30.29;92.83;100417.44;7751022;23;20015;-96
2023/07/14 14:16:49;;;;;;;4.22;2.83;;;;;;;29.63;94.00;100401.56;7746259;23;20024;-96
2023/07/14 14:19:53;;;;;;;4.10;2.75;;;;;;;29.39;97.73;100404.50;7744508;23;20019;-96
2023/07/14 14:23:05;;;;;;;4.38;2.80;;;;;;;29.62;100.00;100397.28;7745119;23;20016;-96
2023/07/14 14:26:12;;;;;;;4.00;3.07;;;;;;;29.94;89.76;100393.91;7743484;23;20027;-96
2023/07/14 14:29:18;;;;;;;6.55;2.60;;;;;;;30.03;80.53;100389.69;7743610;23;20378;-96
2023/07/14 14:32:32;;;;;;;4.75;3.00;;;;;;;30.14;87.16;100394.06;7746048;22;20023;-97
2023/07/14 14:35:50;;;;;;;3.72;2.70;;;;;;;30.25;82.12;100381.63;7743476;23;20027;-96